createdAt,value
2023-03-06T00:01:06.828Z,9.43
2023-03-06T00:03:34.304Z,8.20
2023-03-06T00:06:01.749Z,9.80
2023-03-06T00:08:29.445Z,9.48
2023-03-06T00:10:56.818Z,10.07
2023-03-06T00:13:23.307Z,9.98
2023-03-06T00:15:50.036Z,12.05
2023-03-06T00:18:16.573Z,9.10
2023-03-06T00:20:43.857Z,9.73
2023-03-06T00:25:38.572Z,11.73
2023-03-06T00:28:06.107Z,9.57
2023-03-06T00:30:32.710Z,10.18
2023-03-06T00:32:59.085Z,11.15
2023-03-06T00:35:25.458Z,11.45
2023-03-06T00:37:52.075Z,10.20
2023-03-06T00:40:20.195Z,12.93
2023-03-06T00:42:47.771Z,10.95
2023-03-06T00:45:14.884Z,11.57
2023-03-06T00:47:41.864Z,11.75
2023-03-06T00:50:10.530Z,12.02
2023-03-06T00:52:37.406Z,11.85
2023-03-06T00:55:04.702Z,12.00
2023-03-06T00:57:31.239Z,10.98
2023-03-06T00:59:57.670Z,11.30
2023-03-06T01:02:24.252Z,11.55
2023-03-06T01:04:50.978Z,11.88
2023-03-06T01:07:17.433Z,10.80
2023-03-06T01:09:43.927Z,10.65
2023-03-06T01:12:10.537Z,11.18
2023-03-06T01:14:36.972Z,10.43
2023-03-06T01:17:03.568Z,10.73
2023-03-06T01:19:30.422Z,11.68
2023-03-06T01:21:56.849Z,10.98
2023-03-06T01:24:25.591Z,9.85
2023-03-06T01:26:52.125Z,10.75
2023-03-06T01:29:18.614Z,9.68
2023-03-06T01:31:45.073Z,10.95
2023-03-06T01:34:11.866Z,9.85
2023-03-06T01:36:38.439Z,11.60
2023-03-06T01:39:04.976Z,10.77
2023-03-06T01:43:59.677Z,10.45
2023-03-06T01:46:29.023Z,9.55
2023-03-06T01:49:10.805Z,11.38
2023-03-06T01:52:00.190Z,12.50
2023-03-06T01:54:31.510Z,12.27
2023-03-06T01:57:11.598Z,12.50
2023-03-06T01:59:40.307Z,15.23
2023-03-06T02:02:10.249Z,12.10
2023-03-06T02:04:39.448Z,11.95
2023-03-06T02:07:08.497Z,11.05
2023-03-06T02:09:36.166Z,12.75
2023-03-06T02:12:07.912Z,12.18
2023-03-06T02:14:34.970Z,13.18
2023-03-06T02:17:01.885Z,9.82
2023-03-06T02:19:38.510Z,10.50
2023-03-06T02:22:05.718Z,12.00
2023-03-06T02:27:05.395Z,12.43
2023-03-06T02:29:32.388Z,10.70
2023-03-06T02:31:58.870Z,10.95
2023-03-06T02:34:25.442Z,11.25
2023-03-06T02:37:03.070Z,9.68
2023-03-06T02:39:33.151Z,11.60
2023-03-06T02:41:59.945Z,12.07
2023-03-06T02:44:27.713Z,12.98
2023-03-06T02:46:54.211Z,10.60
2023-03-06T02:49:20.743Z,10.82
2023-03-06T02:51:47.462Z,10.32
2023-03-06T02:54:13.918Z,9.88
2023-03-06T02:56:40.306Z,8.85
2023-03-06T02:59:06.666Z,10.60
2023-03-06T03:01:33.157Z,9.80
2023-03-06T03:03:59.583Z,9.68
2023-03-06T03:06:26.058Z,8.65
2023-03-06T03:08:52.484Z,12.30
2023-03-06T03:11:18.829Z,11.93
2023-03-06T03:13:45.360Z,12.70
2023-03-06T03:16:15.317Z,10.77
2023-03-06T03:18:47.743Z,11.30
2023-03-06T03:21:14.789Z,13.00
2023-03-06T03:23:41.287Z,9.52
2023-03-06T03:26:13.755Z,9.95
2023-03-06T03:28:40.229Z,11.30
2023-03-06T03:31:09.266Z,11.60
2023-03-06T03:33:35.769Z,9.38
2023-03-06T03:36:04.585Z,8.50
2023-03-06T03:38:31.766Z,9.80
2023-03-06T03:40:58.315Z,10.77
2023-03-06T03:43:24.704Z,11.13
2023-03-06T03:45:53.294Z,12.20
2023-03-06T03:48:20.323Z,12.23
2023-03-06T03:50:46.712Z,11.57
2023-03-06T03:53:13.274Z,13.13
2023-03-06T03:55:39.715Z,14.55
2023-03-06T03:58:06.193Z,9.20
2023-03-06T04:00:32.557Z,11.25
2023-03-06T04:02:59.011Z,13.45
2023-03-06T04:05:25.596Z,11.70
2023-03-06T04:07:52.398Z,12.70
2023-03-06T04:10:18.966Z,11.18
2023-03-06T04:12:45.463Z,10.93
2023-03-06T04:15:11.920Z,11.65
2023-03-06T04:17:38.323Z,12.50
2023-03-06T04:20:05.291Z,10.77
2023-03-06T04:22:31.891Z,12.00
2023-03-06T04:24:58.325Z,9.80
2023-03-06T04:27:24.978Z,12.57
2023-03-06T04:29:51.563Z,10.73
2023-03-06T04:32:20.334Z,12.23
2023-03-06T04:34:47.674Z,10.90
2023-03-06T04:37:24.090Z,12.98
2023-03-06T04:39:50.779Z,11.43
2023-03-06T04:42:17.775Z,11.55
2023-03-06T04:47:11.872Z,12.57
2023-03-06T04:49:38.365Z,12.32
2023-03-06T04:52:05.545Z,11.70
2023-03-06T04:54:32.315Z,10.18
2023-03-06T04:56:58.774Z,11.98
2023-03-06T04:59:25.513Z,12.98
2023-03-06T05:01:52.053Z,9.43
2023-03-06T05:04:18.608Z,11.75
2023-03-06T05:06:45.045Z,10.13
2023-03-06T05:09:11.463Z,10.52
2023-03-06T05:11:37.862Z,11.50
2023-03-06T05:14:04.209Z,10.35
2023-03-06T05:16:30.628Z,8.93
2023-03-06T05:18:57.040Z,10.60
2023-03-06T05:21:23.752Z,11.18
2023-03-06T05:23:50.399Z,11.13
2023-03-06T05:26:16.872Z,9.95
2023-03-06T05:28:43.369Z,11.15
2023-03-06T05:31:10.444Z,10.70
2023-03-06T05:33:37.054Z,10.32
2023-03-06T05:36:03.983Z,9.77
2023-03-06T05:40:58.108Z,11.90
2023-03-06T05:43:24.510Z,12.43
2023-03-06T05:45:52.908Z,10.80
2023-03-06T05:48:19.749Z,13.25
2023-03-06T05:50:46.154Z,12.43
2023-03-06T05:53:12.585Z,12.55
2023-03-06T05:55:39.126Z,11.32
2023-03-06T05:58:05.542Z,9.93
2023-03-06T06:00:31.965Z,11.95
2023-03-06T06:03:01.651Z,12.60
2023-03-06T06:05:28.096Z,12.35
2023-03-06T06:07:54.914Z,12.43
2023-03-06T06:10:21.347Z,11.38
2023-03-06T06:12:47.782Z,11.32
2023-03-06T06:15:15.342Z,15.15
2023-03-06T06:17:41.918Z,11.20
2023-03-06T06:20:09.157Z,13.10
2023-03-06T06:25:03.229Z,11.57
2023-03-06T06:27:30.933Z,12.88
2023-03-06T06:29:57.362Z,13.00
2023-03-06T06:32:23.756Z,16.60
2023-03-06T06:34:50.253Z,14.02
2023-03-06T06:37:16.748Z,15.27
2023-03-06T06:39:43.185Z,14.07
2023-03-06T06:42:29.883Z,13.23
2023-03-06T06:44:56.568Z,11.77
2023-03-06T06:47:25.110Z,15.95
2023-03-06T06:49:53.947Z,12.35
2023-03-06T06:52:20.896Z,13.15
2023-03-06T06:54:47.443Z,13.02
2023-03-06T06:57:14.602Z,12.63
2023-03-06T07:02:07.862Z,13.25
2023-03-06T07:04:34.454Z,13.90
2023-03-06T07:07:01.159Z,13.25
2023-03-06T07:09:27.949Z,12.25
2023-03-06T07:14:21.160Z,12.43
2023-03-06T07:16:47.564Z,13.02
2023-03-06T07:19:14.187Z,13.45
2023-03-06T07:21:40.590Z,13.85
2023-03-06T07:24:07.322Z,13.63
2023-03-06T07:26:34.946Z,13.65
2023-03-06T07:29:02.458Z,12.88
2023-03-06T07:31:29.106Z,15.32
2023-03-06T07:33:55.936Z,12.45
2023-03-06T07:36:23.529Z,14.63
2023-03-06T07:38:50.262Z,13.50
2023-03-06T07:41:19.799Z,13.63
2023-03-06T07:43:48.421Z,15.07
2023-03-06T07:46:15.211Z,16.05
2023-03-06T07:48:42.443Z,15.52
2023-03-06T07:51:14.472Z,16.38
2023-03-06T07:53:40.845Z,16.08
2023-03-06T07:56:09.001Z,15.43
2023-03-06T07:58:36.643Z,16.52
2023-03-06T08:01:07.526Z,14.27
2023-03-06T08:03:34.542Z,13.45
2023-03-06T08:06:12.549Z,16.85
2023-03-06T08:08:40.689Z,14.55
2023-03-06T08:11:09.464Z,16.92
2023-03-06T08:13:36.707Z,15.93
2023-03-06T08:16:03.785Z,13.77
2023-03-06T08:18:30.580Z,15.27
2023-03-06T08:21:04.335Z,17.75
2023-03-06T08:23:31.515Z,16.77
2023-03-06T08:26:04.199Z,16.17
2023-03-06T08:30:58.470Z,14.82
2023-03-06T08:33:24.992Z,14.52
2023-03-06T08:35:52.307Z,15.32
2023-03-06T08:38:19.006Z,14.98
2023-03-06T08:40:45.379Z,16.75
2023-03-06T08:43:14.106Z,15.80
2023-03-06T08:45:40.826Z,15.30
2023-03-06T08:48:07.400Z,17.17
2023-03-06T08:50:34.040Z,19.98
2023-03-06T08:53:00.738Z,19.10
2023-03-06T08:55:28.158Z,22.20
2023-03-06T08:57:54.656Z,20.90
2023-03-06T09:00:21.450Z,19.40
2023-03-06T09:02:47.874Z,21.20
2023-03-06T09:05:14.380Z,20.42
2023-03-06T09:10:08.451Z,18.67
2023-03-06T09:12:48.807Z,20.33
2023-03-06T09:15:18.153Z,18.25
2023-03-06T09:17:44.745Z,21.15
2023-03-06T09:20:12.521Z,22.38
2023-03-06T09:22:39.219Z,19.58
2023-03-06T09:25:06.475Z,18.30
2023-03-06T09:29:59.900Z,19.42
2023-03-06T09:32:27.710Z,16.88
2023-03-06T09:34:54.334Z,17.95
2023-03-06T09:37:20.861Z,17.48
2023-03-06T09:39:48.341Z,17.40
2023-03-06T09:42:21.448Z,19.15
2023-03-06T09:44:56.632Z,19.13
2023-03-06T09:47:40.928Z,17.90
2023-03-06T09:50:13.512Z,18.88
2023-03-06T09:52:43.509Z,16.75
2023-03-06T09:55:17.822Z,17.77
2023-03-06T09:58:13.229Z,19.85
2023-03-06T10:00:43.080Z,16.20
2023-03-06T10:03:15.650Z,15.48
2023-03-06T10:05:47.163Z,18.38
2023-03-06T10:08:19.703Z,16.65
2023-03-06T10:10:57.728Z,27.83
2023-03-06T10:13:43.037Z,22.58
2023-03-06T10:16:25.573Z,16.88
2023-03-06T10:18:53.178Z,18.67
2023-03-06T10:21:38.288Z,16.67
2023-03-06T10:24:29.626Z,20.67
2023-03-06T10:30:02.093Z,15.85
2023-03-06T10:32:49.484Z,13.98
2023-03-06T10:35:41.997Z,13.90
2023-03-06T10:38:37.377Z,14.98
2023-03-06T10:41:08.622Z,13.80
2023-03-06T10:43:36.715Z,15.18
2023-03-06T10:46:05.284Z,15.15
2023-03-06T10:48:35.980Z,13.82
2023-03-06T10:51:22.523Z,16.40
2023-03-06T10:53:57.124Z,15.43
2023-03-06T10:56:37.970Z,15.68
2023-03-06T10:59:17.902Z,16.45
2023-03-06T11:01:48.060Z,13.80
2023-03-06T11:04:23.935Z,15.15
2023-03-06T11:07:15.533Z,16.15
2023-03-06T11:09:59.463Z,16.83
2023-03-06T11:12:32.271Z,16.35
2023-03-06T11:15:21.078Z,27.10
2023-03-06T11:18:07.443Z,20.25
2023-03-06T11:20:51.433Z,19.65
2023-03-06T11:23:29.075Z,18.23
2023-03-06T11:26:02.493Z,16.92
2023-03-06T11:28:33.394Z,15.57
2023-03-06T11:30:59.848Z,17.00
2023-03-06T11:33:34.045Z,18.88
2023-03-06T11:36:30.292Z,15.10
2023-03-06T11:38:56.776Z,17.38
2023-03-06T11:41:33.644Z,15.02
2023-03-06T11:44:16.920Z,18.02
2023-03-06T11:46:50.558Z,16.80
2023-03-06T11:49:24.603Z,14.63
2023-03-06T11:52:06.238Z,13.10
2023-03-06T11:54:33.571Z,16.75
2023-03-06T11:57:17.186Z,14.43
2023-03-06T11:59:54.527Z,14.50
2023-03-06T12:02:57.889Z,13.60
2023-03-06T12:08:12.999Z,14.50
2023-03-06T12:10:51.978Z,13.57
2023-03-06T12:13:31.129Z,12.40
2023-03-06T12:16:24.339Z,12.85
2023-03-06T12:18:56.774Z,12.85
2023-03-06T12:21:47.626Z,13.20
2023-03-06T12:24:26.205Z,13.15
2023-03-06T12:27:01.703Z,11.68
2023-03-06T12:29:56.084Z,9.25
2023-03-06T12:32:49.375Z,11.05
2023-03-06T12:35:15.843Z,11.07
2023-03-06T12:37:42.313Z,14.15
2023-03-06T12:40:27.720Z,8.95
2023-03-06T12:43:25.188Z,9.13
2023-03-06T12:45:57.590Z,8.70
2023-03-06T12:48:29.180Z,8.70
2023-03-06T12:50:56.592Z,9.60
2023-03-06T12:53:29.483Z,8.95
2023-03-06T12:55:58.110Z,7.65
2023-03-06T12:58:30.607Z,9.65
2023-03-06T13:01:08.047Z,7.85
2023-03-06T13:03:56.290Z,8.35
2023-03-06T13:06:59.800Z,7.70
2023-03-06T13:09:45.000Z,8.63
2023-03-06T13:15:27.668Z,12.63
2023-03-06T13:17:54.732Z,9.75
2023-03-06T13:20:40.604Z,10.10
2023-03-06T13:23:29.002Z,11.10
2023-03-06T13:26:03.396Z,8.75
2023-03-06T13:28:49.818Z,11.18
2023-03-06T13:31:48.172Z,11.40
2023-03-06T13:34:38.103Z,9.10
2023-03-06T13:37:13.720Z,10.68
2023-03-06T13:39:58.463Z,11.25
2023-03-06T13:42:45.164Z,8.27
2023-03-06T13:45:24.730Z,7.80
2023-03-06T13:48:37.588Z,9.55
2023-03-06T13:50:48.217Z,10.48
2023-03-06T13:53:41.258Z,9.30
2023-03-06T13:56:25.775Z,9.23
2023-03-06T13:59:13.821Z,9.23
2023-03-06T14:01:45.084Z,9.82
2023-03-06T14:04:36.731Z,10.85
2023-03-06T14:07:28.803Z,9.20
2023-03-06T14:10:25.785Z,11.93
2023-03-06T14:13:02.949Z,10.75
2023-03-06T14:15:55.876Z,11.63
2023-03-06T14:18:26.214Z,11.32
2023-03-06T14:21:05.350Z,10.48
2023-03-06T14:26:19.420Z,10.73
2023-03-06T14:28:58.465Z,11.48
2023-03-06T14:31:31.999Z,12.07
2023-03-06T14:34:15.853Z,10.85
2023-03-06T14:36:43.962Z,11.65
2023-03-06T14:39:17.537Z,11.05
2023-03-06T14:41:44.006Z,12.05
2023-03-06T14:44:26.307Z,11.77
2023-03-06T14:46:55.992Z,11.27
2023-03-06T14:49:25.315Z,9.80
2023-03-06T14:52:00.517Z,11.15
2023-03-06T14:54:34.083Z,15.48
2023-03-06T14:57:08.410Z,13.75
2023-03-06T14:59:41.922Z,10.60
2023-03-06T15:02:15.441Z,11.32
2023-03-06T15:04:46.692Z,14.35
2023-03-06T15:07:17.928Z,11.25
2023-03-06T15:09:48.685Z,12.40
2023-03-06T15:12:20.825Z,14.40
2023-03-06T15:15:00.816Z,11.65
2023-03-06T15:17:27.369Z,10.50
2023-03-06T15:19:59.486Z,11.75
2023-03-06T15:22:30.648Z,13.85
2023-03-06T15:25:18.956Z,12.70
2023-03-06T15:27:51.244Z,13.35
2023-03-06T15:30:36.394Z,12.77
2023-03-06T15:33:26.201Z,12.25
2023-03-06T15:35:57.266Z,12.90
2023-03-06T15:38:40.578Z,12.38
2023-03-06T15:41:21.476Z,11.25
2023-03-06T15:43:47.950Z,12.18
2023-03-06T15:46:14.486Z,12.32
2023-03-06T15:48:53.547Z,12.27
2023-03-06T15:51:20.512Z,13.05
2023-03-06T15:53:47.034Z,14.13
2023-03-06T15:56:13.437Z,11.45
2023-03-06T15:58:42.595Z,11.70
2023-03-06T16:01:17.305Z,10.50
2023-03-06T16:03:47.967Z,11.15
2023-03-06T16:06:19.395Z,11.48
2023-03-06T16:08:46.056Z,11.75
2023-03-06T16:11:20.412Z,11.95
2023-03-06T16:13:46.982Z,12.77
2023-03-06T16:16:19.242Z,11.90
2023-03-06T16:18:46.241Z,11.50
2023-03-06T16:21:12.776Z,14.05
2023-03-06T16:23:40.028Z,13.32
2023-03-06T16:26:18.478Z,12.05
2023-03-06T16:28:45.888Z,18.60
2023-03-06T16:31:13.988Z,14.38
2023-03-06T16:33:41.934Z,13.50
2023-03-06T16:36:13.764Z,12.43
2023-03-06T16:38:40.369Z,13.48
2023-03-06T16:41:06.790Z,13.23
2023-03-06T16:43:33.194Z,14.77
2023-03-06T16:45:59.765Z,12.20
2023-03-06T16:48:26.268Z,11.48
2023-03-06T16:50:53.242Z,12.63
2023-03-06T16:53:19.745Z,14.23
2023-03-06T16:55:46.399Z,12.70
2023-03-06T16:58:12.979Z,13.15
2023-03-06T17:00:39.483Z,13.27
2023-03-06T17:03:06.516Z,13.65
2023-03-06T17:05:37.929Z,12.82
2023-03-06T17:08:04.792Z,14.80
2023-03-06T17:10:31.827Z,11.95
2023-03-06T17:12:58.234Z,11.88
2023-03-06T17:15:24.704Z,12.57
2023-03-06T17:17:52.240Z,13.05
2023-03-06T17:20:19.534Z,12.95
2023-03-06T17:22:45.994Z,12.50
2023-03-06T17:25:12.585Z,13.27
2023-03-06T17:27:38.938Z,12.70
2023-03-06T17:30:06.667Z,11.48
2023-03-06T17:32:34.042Z,12.30
2023-03-06T17:35:00.497Z,11.38
2023-03-06T17:37:27.032Z,13.60
2023-03-06T17:39:53.654Z,13.77
2023-03-06T17:42:20.221Z,13.60
2023-03-06T17:44:47.829Z,14.18
2023-03-06T17:47:14.405Z,15.15
2023-03-06T17:49:40.763Z,12.60
2023-03-06T17:52:07.399Z,14.68
2023-03-06T17:54:34.370Z,11.60
2023-03-06T17:57:03.460Z,12.00
2023-03-06T17:59:33.758Z,12.07
2023-03-06T18:02:00.985Z,12.18
2023-03-06T18:04:28.131Z,10.77
2023-03-06T18:09:21.023Z,11.63
2023-03-06T18:11:47.402Z,11.50
2023-03-06T18:14:14.117Z,13.65
2023-03-06T18:16:41.361Z,13.18
2023-03-06T18:19:10.855Z,12.18
2023-03-06T18:21:38.423Z,12.75
2023-03-06T18:24:05.185Z,10.85
2023-03-06T18:26:32.106Z,14.10
2023-03-06T18:29:01.378Z,11.90
2023-03-06T18:31:34.176Z,12.10
2023-03-06T18:36:31.959Z,12.02
2023-03-06T18:38:59.147Z,15.43
2023-03-06T18:41:25.747Z,14.25
2023-03-06T18:43:54.388Z,12.43
2023-03-06T18:46:21.626Z,12.35
2023-03-06T18:48:48.164Z,13.60
2023-03-06T18:51:15.096Z,16.00
2023-03-06T18:53:42.317Z,14.85
2023-03-06T18:56:13.267Z,14.30
2023-03-06T18:58:40.085Z,14.80
2023-03-06T19:01:07.486Z,14.50
2023-03-06T19:03:34.428Z,14.73
2023-03-06T19:06:08.921Z,15.05
2023-03-06T19:08:37.146Z,14.70
2023-03-06T19:11:09.236Z,15.00
2023-03-06T19:13:36.118Z,14.68
2023-03-06T19:16:03.196Z,13.85
2023-03-06T19:18:30.170Z,14.98
2023-03-06T19:21:07.700Z,13.80
2023-03-06T19:23:34.261Z,13.55
2023-03-06T19:26:00.686Z,16.52
2023-03-06T19:28:27.289Z,14.68
2023-03-06T19:30:53.854Z,13.25
2023-03-06T19:33:20.329Z,12.68
2023-03-06T19:35:47.759Z,13.98
2023-03-06T19:38:15.461Z,13.20
2023-03-06T19:40:49.000Z,12.27
2023-03-06T19:43:15.510Z,13.13
2023-03-06T19:45:43.773Z,13.50
2023-03-06T19:48:12.441Z,10.55
2023-03-06T19:50:40.510Z,11.57
2023-03-06T19:53:08.268Z,12.32
2023-03-06T19:55:35.029Z,11.35
2023-03-06T19:58:01.728Z,12.10
2023-03-06T20:00:28.369Z,11.57
2023-03-06T20:02:55.625Z,11.23
2023-03-06T20:05:22.311Z,13.02
2023-03-06T20:07:49.527Z,14.25
2023-03-06T20:10:16.314Z,13.00
2023-03-06T20:12:42.757Z,12.35
2023-03-06T20:15:09.672Z,11.52
2023-03-06T20:17:40.372Z,13.18
2023-03-06T20:20:10.463Z,11.43
2023-03-06T20:22:37.158Z,12.85
2023-03-06T20:25:04.555Z,10.80
2023-03-06T20:27:31.296Z,12.73
2023-03-06T20:29:57.793Z,12.77
2023-03-06T20:32:24.258Z,11.90
2023-03-06T20:34:50.690Z,12.75
2023-03-06T20:37:17.277Z,11.57
2023-03-06T20:39:43.708Z,12.20
2023-03-06T20:42:10.160Z,11.52
2023-03-06T20:44:36.582Z,12.80
2023-03-06T20:47:03.205Z,12.63
2023-03-06T20:49:29.717Z,13.02
2023-03-06T20:51:56.575Z,11.73
2023-03-06T20:54:23.230Z,13.13
2023-03-06T20:56:50.155Z,11.48
2023-03-06T20:59:16.962Z,11.98
2023-03-06T21:01:45.873Z,11.55
2023-03-06T21:04:13.996Z,12.52
2023-03-06T21:06:45.182Z,13.73
2023-03-06T21:09:12.933Z,12.25
2023-03-06T21:11:39.470Z,11.50
2023-03-06T21:14:06.945Z,11.60
2023-03-06T21:16:33.649Z,13.45
2023-03-06T21:19:00.789Z,12.75
2023-03-06T21:23:55.839Z,12.98
2023-03-06T21:26:24.546Z,13.73
2023-03-06T21:28:51.336Z,14.13
2023-03-06T21:31:19.826Z,13.73
2023-03-06T21:33:48.588Z,13.93
2023-03-06T21:36:15.720Z,15.13
2023-03-06T21:38:42.153Z,15.13
2023-03-06T21:41:15.062Z,15.45
2023-03-06T21:43:41.762Z,16.42
2023-03-06T21:46:09.195Z,13.23
2023-03-06T21:48:35.685Z,15.05
2023-03-06T21:51:07.921Z,15.88
2023-03-06T21:53:34.750Z,17.63
2023-03-06T21:56:02.026Z,16.33
2023-03-06T21:58:29.724Z,14.57
2023-03-06T22:00:56.571Z,16.95
2023-03-06T22:03:23.088Z,16.73
2023-03-06T22:05:49.464Z,17.23
2023-03-06T22:08:15.983Z,21.63
2023-03-06T22:10:42.551Z,17.75
2023-03-06T22:13:09.299Z,18.52
2023-03-06T22:15:36.804Z,17.50
2023-03-06T22:18:03.374Z,17.50
2023-03-06T22:20:29.887Z,18.25
2023-03-06T22:22:57.018Z,18.63
2023-03-06T22:27:50.073Z,17.15
2023-03-06T22:30:17.733Z,16.98
2023-03-06T22:32:44.206Z,18.73
2023-03-06T22:35:10.676Z,18.35
2023-03-06T22:37:37.274Z,16.25
2023-03-06T22:40:03.977Z,20.73
2023-03-06T22:42:30.519Z,16.85
2023-03-06T22:44:56.898Z,17.92
2023-03-06T22:47:23.252Z,19.33
2023-03-06T22:49:49.682Z,17.52
2023-03-06T22:52:19.367Z,17.00
2023-03-06T22:54:45.853Z,19.08
2023-03-06T22:57:12.284Z,16.30
2023-03-06T22:59:38.665Z,19.67
2023-03-06T23:02:05.180Z,18.42
2023-03-06T23:04:31.729Z,15.82
2023-03-06T23:06:58.138Z,17.00
2023-03-06T23:09:25.435Z,20.40
2023-03-06T23:11:52.385Z,17.65
2023-03-06T23:14:19.909Z,17.63
2023-03-06T23:16:46.387Z,17.10
2023-03-06T23:19:12.871Z,16.48
2023-03-06T23:21:39.383Z,16.90
2023-03-06T23:24:06.858Z,17.35
2023-03-06T23:26:37.006Z,16.92
2023-03-06T23:29:04.232Z,17.52
2023-03-06T23:31:31.503Z,18.33
2023-03-06T23:34:02.497Z,15.02
2023-03-06T23:36:30.191Z,18.13
2023-03-06T23:38:57.428Z,17.58
2023-03-06T23:41:24.698Z,16.60
2023-03-06T23:43:54.949Z,15.73
2023-03-06T23:46:21.785Z,16.13
2023-03-06T23:48:48.218Z,15.43
2023-03-06T23:51:19.941Z,13.15
2023-03-06T23:53:48.312Z,14.27
2023-03-06T23:56:15.294Z,15.07
2023-03-06T23:58:41.786Z,13.70
